Time;durP1;ratioP1;P1;durP2;ratioP2;P2;SDS_P1;SDS_P2;PMS_P1;PMS_P2;Temp;Humidity;BMP_temperature;BMP_pressure;BME280_temperature;BME280_humidity;BME280_pressure;Samples;Min_cycle;Max_cycle;Signal;HPM_P1;HPM_P2
2023/10/01 00:01:44;;;;;;;9.13;2.60;;;;;;;;;;5055309;28;20020;-89
2023/10/01 00:04:10;;;;;;;6.20;2.72;;;;;;;;;;5043504;28;20098;-89
2023/10/01 00:06:36;;;;;;;6.45;2.80;;;;;;;;;;5054491;28;20090;-89
2023/10/01 00:09:05;;;;;;;4.70;2.28;;;;;;;;;;5054434;28;20025;-89
2023/10/01 00:11:30;;;;;;;8.07;3.30;;;;;;;;;;5054826;28;20108;-89
2023/10/01 00:13:56;;;;;;;4.35;2.15;;;;;;;;;;5054221;28;20123;-89
2023/10/01 00:16:21;;;;;;;8.40;2.45;;;;;;;;;;5054767;28;20028;-89
2023/10/01 00:18:47;;;;;;;5.65;2.92;;;;;;;;;;5068964;28;20029;-90
2023/10/01 00:21:13;;;;;;;6.80;2.42;;;;;;;;;;5056424;28;20383;-87
2023/10/01 00:23:38;;;;;;;6.80;3.05;;;;;;;;;;5072053;28;20029;-89
2023/10/01 00:26:04;;;;;;;8.20;2.55;;;;;;;;;;5055025;28;20475;-89
2023/10/01 00:28:29;;;;;;;4.45;2.33;;;;;;;;;;5073190;28;20024;-89
2023/10/01 00:30:59;;;;;;;6.53;2.80;;;;;;;;;;5056825;28;20119;-89
2023/10/01 00:33:25;;;;;;;6.10;2.67;;;;;;;;;;5051957;28;20524;-88
2023/10/01 00:35:51;;;;;;;6.60;2.35;;;;;;;;;;5056650;28;20020;-89
2023/10/01 00:38:16;;;;;;;5.05;2.47;;;;;;;;;;5056008;28;20529;-89
2023/10/01 00:40:42;;;;;;;5.28;2.45;;;;;;;;;;5054934;28;20025;-89
2023/10/01 00:43:08;;;;;;;7.50;2.75;;;;;;;;;;5055701;28;20028;-89
2023/10/01 00:45:34;;;;;;;7.68;2.45;;;;;;;;;;5056588;28;20027;-90
2023/10/01 00:48:03;;;;;;;8.38;3.00;;;;;;;;;;5056035;28;20086;-90
2023/10/01 00:50:29;;;;;;;5.15;2.30;;;;;;;;;;5055103;28;20032;-89
2023/10/01 00:52:57;;;;;;;7.88;2.97;;;;;;;;;;5054641;28;20028;-89
2023/10/01 00:55:22;;;;;;;8.05;2.63;;;;;;;;;;5055183;28;20048;-89
2023/10/01 00:57:49;;;;;;;10.05;2.50;;;;;;;;;;5054983;28;20028;-89
2023/10/01 01:00:16;;;;;;;5.30;2.55;;;;;;;;;;5055088;28;20044;-89
2023/10/01 01:03:00;;;;;;;6.03;2.67;;;;;;;;;;5054601;28;20067;-90
2023/10/01 01:05:35;;;;;;;5.35;2.50;;;;;;;;;;5054232;28;20396;-90
2023/10/01 01:08:09;;;;;;;8.05;2.45;;;;;;;;;;5055046;28;20506;-90
2023/10/01 01:10:41;;;;;;;10.18;2.85;;;;;;;;;;5054732;28;20036;-89
2023/10/01 01:13:07;;;;;;;16.80;2.53;;;;;;;;;;5053825;28;20425;-90
2023/10/01 01:15:34;;;;;;;7.82;3.00;;;;;;;;;;5052958;28;20013;-89
2023/10/01 01:18:00;;;;;;;10.52;3.13;;;;;;;;;;5055040;28;20602;-89
2023/10/01 01:20:30;;;;;;;7.65;3.03;;;;;;;;;;5088184;28;20044;-89
2023/10/01 01:22:58;;;;;;;8.98;3.00;;;;;;;;;;5054360;28;20357;-90
2023/10/01 01:25:26;;;;;;;7.32;2.63;;;;;;;;;;5054451;28;20367;-90
2023/10/01 01:27:52;;;;;;;6.60;2.53;;;;;;;;;;5055861;28;20523;-90
2023/10/01 01:30:19;;;;;;;7.05;2.92;;;;;;;;;;5053619;28;20016;-89
2023/10/01 01:32:47;;;;;;;6.70;2.47;;;;;;;;;;5062800;28;20491;-89
2023/10/01 01:35:12;;;;;;;5.75;3.15;;;;;;;;;;5054265;28;20353;-90
2023/10/01 01:37:46;;;;;;;9.75;2.97;;;;;;;;;;5044588;28;20107;-90
2023/10/01 01:40:23;;;;;;;6.88;2.95;;;;;;;;;;5055325;28;20025;-90
2023/10/01 01:42:48;;;;;;;9.05;2.95;;;;;;;;;;5050563;28;20028;-90
2023/10/01 01:45:19;;;;;;;8.07;3.00;;;;;;;;;;5049058;28;20554;-90
2023/10/01 01:47:48;;;;;;;7.03;3.40;;;;;;;;;;5042517;28;20032;-89
2023/10/01 01:50:21;;;;;;;5.88;2.45;;;;;;;;;;5058408;28;20150;-90
2023/10/01 01:52:49;;;;;;;9.95;2.55;;;;;;;;;;5044779;28;20028;-90
2023/10/01 01:55:27;;;;;;;6.03;2.80;;;;;;;;;;5059866;28;20044;-90
2023/10/01 01:58:08;;;;;;;8.55;2.80;;;;;;;;;;5058688;28;20024;-90
2023/10/01 02:01:01;;;;;;;5.57;2.42;;;;;;;;;;5057022;28;20067;-90
2023/10/01 02:03:32;;;;;;;;;;;;;;;;;;5058050;28;20360;-89
2023/10/01 02:05:58;;;;;;;11.60;2.95;;;;;;;;;;5070861;28;19904;-89
2023/10/01 02:08:23;;;;;;;8.75;3.03;;;;;;;;;;5057734;28;20031;-90
2023/10/01 02:10:50;;;;;;;6.40;2.92;;;;;;;;;;5056679;28;20040;-90
2023/10/01 02:13:19;;;;;;;6.50;2.83;;;;;;;;;;5058291;28;20086;-89
2023/10/01 02:15:47;;;;;;;7.47;2.83;;;;;;;;;;5058377;28;20404;-89
2023/10/01 02:18:20;;;;;;;14.43;3.13;;;;;;;;;;5057766;28;20059;-90
2023/10/01 02:20:51;;;;;;;6.32;2.72;;;;;;;;;;5056484;28;20032;-90
2023/10/01 02:23:26;;;;;;;8.25;2.97;;;;;;;;;;5056647;28;20020;-90
2023/10/01 02:25:57;;;;;;;6.95;2.55;;;;;;;;;;5056730;28;20032;-89
2023/10/01 02:28:23;;;;;;;6.97;2.53;;;;;;;;;;5056291;28;20380;-89
2023/10/01 02:30:54;;;;;;;12.38;3.40;;;;;;;;;;5056212;28;20012;-89
2023/10/01 02:33:20;;;;;;;5.85;2.65;;;;;;;;;;5057039;28;20029;-90
2023/10/01 02:35:49;;;;;;;6.53;3.17;;;;;;;;;;5058297;28;20028;-90
2023/10/01 02:40:59;;;;;;;9.65;2.95;;;;;;;;;;5062582;28;20070;-89
2023/10/01 02:43:25;;;;;;;9.60;2.72;;;;;;;;;;5057820;28;20048;-90
2023/10/01 02:45:50;;;;;;;9.43;3.20;;;;;;;;;;5057669;28;20016;-90
2023/10/01 02:48:18;;;;;;;12.50;3.28;;;;;;;;;;5058179;28;20024;-90
2023/10/01 02:50:54;;;;;;;8.07;3.28;;;;;;;;;;5058658;28;20016;-89
2023/10/01 02:53:21;;;;;;;8.65;3.10;;;;;;;;;;5060262;28;20502;-90
2023/10/01 02:55:47;;;;;;;7.40;2.55;;;;;;;;;;5057965;28;20017;-90
2023/10/01 02:58:49;;;;;;;8.88;2.75;;;;;;;;;;5057214;28;21987;-90
2023/10/01 03:01:13;;;;;;;7.13;2.67;;;;;;;;;;5071170;28;20074;-89
2023/10/01 03:03:39;;;;;;;7.60;2.83;;;;;;;;;;5058596;28;20025;-89
2023/10/01 03:06:09;;;;;;;7.85;2.78;;;;;;;;;;5056277;28;20082;-90
2023/10/01 03:08:59;;;;;;;10.43;3.17;;;;;;;;;;5056114;28;20051;-89
2023/10/01 03:11:25;;;;;;;8.45;2.80;;;;;;;;;;5056291;28;20032;-89
2023/10/01 03:13:53;;;;;;;10.07;2.58;;;;;;;;;;5056252;28;20023;-89
2023/10/01 03:19:25;;;;;;;10.15;3.13;;;;;;;;;;5039930;28;20429;-90
2023/10/01 03:22:22;;;;;;;11.48;3.35;;;;;;;;;;5056794;28;20024;-90
2023/10/01 03:24:41;;;;;;;12.55;3.35;;;;;;;;;;5072622;28;20028;-89
2023/10/01 03:27:27;;;;;;;11.82;3.20;;;;;;;;;;5056157;28;20013;-89
2023/10/01 03:30:09;;;;;;;9.13;3.00;;;;;;;;;;5049122;28;20427;-90
2023/10/01 03:32:40;;;;;;;12.60;3.28;;;;;;;;;;5038942;28;20029;-90
2023/10/01 03:35:08;;;;;;;12.50;3.08;;;;;;;;;;5076464;28;20437;-89
2023/10/01 03:37:39;;;;;;;9.15;2.75;;;;;;;;;;5054598;28;20098;-89
2023/10/01 03:40:14;;;;;;;5.43;2.28;;;;;;;;;;5055139;28;20158;-90
2023/10/01 03:42:50;;;;;;;13.63;3.00;;;;;;;;;;5057532;28;20028;-89
2023/10/01 03:45:37;;;;;;;8.02;2.67;;;;;;;;;;5057839;28;20093;-90
2023/10/01 03:48:06;;;;;;;7.50;2.85;;;;;;;;;;5055885;28;20419;-90
2023/10/01 03:50:31;;;;;;;11.68;2.83;;;;;;;;;;5049368;28;20021;-89
2023/10/01 03:52:59;;;;;;;9.55;2.70;;;;;;;;;;5057053;28;20013;-90
2023/10/01 03:55:28;;;;;;;10.32;3.17;;;;;;;;;;5057025;28;20024;-90
2023/10/01 03:57:56;;;;;;;9.52;3.03;;;;;;;;;;5061983;28;20028;-89
2023/10/01 04:01:25;;;;;;;9.23;2.60;;;;;;;;;;5056004;28;20029;-90
2023/10/01 04:03:15;;;;;;;8.18;3.20;;;;;;;;;;5053038;28;20036;-90
2023/10/01 04:05:45;;;;;;;9.05;2.92;;;;;;;;;;5056677;28;20031;-90
2023/10/01 04:08:16;;;;;;;8.95;3.15;;;;;;;;;;5056186;28;20048;-89
2023/10/01 04:10:43;;;;;;;10.57;3.00;;;;;;;;;;5047617;28;20032;-90
2023/10/01 04:13:20;;;;;;;10.57;3.65;;;;;;;;;;5051910;28;20035;-90
2023/10/01 04:15:47;;;;;;;8.75;3.03;;;;;;;;;;5054059;28;20436;-89
2023/10/01 04:20:50;;;;;;;9.13;3.58;;;;;;;;;;5072346;28;20808;-90
2023/10/01 04:23:29;;;;;;;13.50;3.97;;;;;;;;;;5055030;28;20025;-90
2023/10/01 04:25:56;;;;;;;11.07;3.70;;;;;;;;;;5054931;28;20131;-90
2023/10/01 04:28:23;;;;;;;8.65;3.08;;;;;;;;;;5054996;28;20591;-90
2023/10/01 04:30:51;;;;;;;8.57;3.58;;;;;;;;;;5054087;28;20136;-90
2023/10/01 04:33:17;;;;;;;9.45;2.75;;;;;;;;;;5054430;28;20201;-90
2023/10/01 04:35:51;;;;;;;7.40;3.35;;;;;;;;;;5054345;28;20016;-90
2023/10/01 04:38:18;;;;;;;6.45;2.72;;;;;;;;;;5054701;28;20414;-89
2023/10/01 04:40:46;;;;;;;7.32;2.90;;;;;;;;;;5072178;28;20056;-90
2023/10/01 04:43:13;;;;;;;10.60;3.58;;;;;;;;;;5054958;28;20033;-90
2023/10/01 04:45:40;;;;;;;10.85;3.53;;;;;;;;;;5054977;28;20537;-90
2023/10/01 04:48:15;;;;;;;9.30;3.60;;;;;;;;;;5054366;28;20024;-90
2023/10/01 04:50:45;;;;;;;9.32;3.55;;;;;;;;;;5055824;28;20032;-90
2023/10/01 04:53:13;;;;;;;11.50;3.40;;;;;;;;;;5054792;28;20124;-90
2023/10/01 04:55:42;;;;;;;9.10;3.55;;;;;;;;;;5054766;28;20021;-90
2023/10/01 04:58:26;;;;;;;9.35;3.40;;;;;;;;;;5055910;28;20337;-89
2023/10/01 05:00:54;;;;;;;17.73;4.03;;;;;;;;;;5057302;28;20055;-88
2023/10/01 05:03:20;;;;;;;15.65;4.15;;;;;;;;;;5056598;28;20025;-90
2023/10/01 05:05:48;;;;;;;12.82;4.20;;;;;;;;;;5056731;28;20036;-90
2023/10/01 05:08:13;;;;;;;11.88;3.50;;;;;;;;;;5055711;28;20016;-90
2023/10/01 05:10:56;;;;;;;14.82;4.22;;;;;;;;;;5056076;28;20037;-89
2023/10/01 05:13:25;;;;;;;14.50;3.88;;;;;;;;;;5056343;28;20028;-90
2023/10/01 05:15:52;;;;;;;11.60;4.03;;;;;;;;;;5051845;28;20040;-90
2023/10/01 05:18:21;;;;;;;12.10;3.83;;;;;;;;;;5072475;28;20019;-89
2023/10/01 05:20:48;;;;;;;9.25;3.63;;;;;;;;;;5054431;28;20025;-89
2023/10/01 05:23:14;;;;;;;15.43;4.20;;;;;;;;;;5058574;28;20063;-90
2023/10/01 05:25:45;;;;;;;13.27;4.80;;;;;;;;;;5059016;28;20028;-90
2023/10/01 05:28:23;;;;;;;11.98;4.03;;;;;;;;;;5059101;28;20043;-89
2023/10/01 05:30:50;;;;;;;11.13;4.10;;;;;;;;;;5058137;28;20487;-89
2023/10/01 05:33:18;;;;;;;13.90;4.38;;;;;;;;;;5058476;28;20060;-89
2023/10/01 05:35:44;;;;;;;12.07;4.22;;;;;;;;;;5058898;28;20028;-89
2023/10/01 05:38:10;;;;;;;13.13;4.22;;;;;;;;;;5058748;28;20033;-90
2023/10/01 05:40:37;;;;;;;12.45;4.05;;;;;;;;;;5058143;28;20020;-89
2023/10/01 05:43:13;;;;;;;10.48;4.05;;;;;;;;;;5058249;28;20028;-90
2023/10/01 05:45:39;;;;;;;11.13;4.20;;;;;;;;;;5057563;28;20029;-89
2023/10/01 05:48:10;;;;;;;15.40;4.15;;;;;;;;;;5057742;28;20020;-90
2023/10/01 05:50:41;;;;;;;14.77;4.00;;;;;;;;;;5057298;28;20051;-89
2023/10/01 05:53:09;;;;;;;11.17;4.17;;;;;;;;;;5057897;28;20032;-89
2023/10/01 05:55:34;;;;;;;11.70;4.60;;;;;;;;;;5057712;28;20028;-90
2023/10/01 05:58:13;;;;;;;8.57;4.13;;;;;;;;;;5061069;28;20032;-89
2023/10/01 06:00:45;;;;;;;10.75;4.10;;;;;;;;;;5057747;28;20090;-90
2023/10/01 06:03:19;;;;;;;12.57;4.10;;;;;;;;;;5058215;28;20446;-90
2023/10/01 06:05:57;;;;;;;18.55;3.92;;;;;;;;;;5061083;28;20078;-90
2023/10/01 06:08:32;;;;;;;9.77;3.63;;;;;;;;;;5063614;28;20012;-90
2023/10/01 06:11:09;;;;;;;10.15;4.32;;;;;;;;;;5077686;28;20039;-90
2023/10/01 06:13:38;;;;;;;11.48;4.18;;;;;;;;;;5046747;28;20375;-89
2023/10/01 06:16:15;;;;;;;9.73;3.72;;;;;;;;;;5061407;28;20391;-90
2023/10/01 06:18:41;;;;;;;10.57;3.63;;;;;;;;;;5060163;28;20111;-90
2023/10/01 06:21:09;;;;;;;13.00;4.97;;;;;;;;;;5054671;28;20008;-90
2023/10/01 06:23:49;;;;;;;9.57;4.22;;;;;;;;;;5066683;28;20021;-91
2023/10/01 06:26:15;;;;;;;12.85;4.28;;;;;;;;;;5051878;28;20443;-90
2023/10/01 06:28:41;;;;;;;11.45;4.07;;;;;;;;;;5055564;28;20107;-90
2023/10/01 06:31:06;;;;;;;11.77;4.45;;;;;;;;;;5056705;28;20048;-91
2023/10/01 06:33:36;;;;;;;12.18;4.57;;;;;;;;;;5055660;28;20504;-90
2023/10/01 06:36:16;;;;;;;13.90;4.20;;;;;;;;;;5055136;28;20016;-90
2023/10/01 06:38:44;;;;;;;19.40;4.55;;;;;;;;;;5055711;28;20024;-90
2023/10/01 06:41:13;;;;;;;16.23;4.78;;;;;;;;;;5057314;28;20095;-90
2023/10/01 06:43:56;;;;;;;15.55;4.68;;;;;;;;;;5057804;28;20035;-90
2023/10/01 06:46:23;;;;;;;15.15;4.82;;;;;;;;;;5057961;28;20504;-89
2023/10/01 06:48:50;;;;;;;10.68;4.53;;;;;;;;;;5056112;28;20811;-89
2023/10/01 06:51:21;;;;;;;10.77;4.60;;;;;;;;;;5056672;28;20028;-89
2023/10/01 06:53:47;;;;;;;12.52;4.75;;;;;;;;;;5057149;28;20426;-89
2023/10/01 06:56:17;;;;;;;14.43;5.20;;;;;;;;;;5056834;28;20116;-89
2023/10/01 06:59:01;;;;;;;12.07;4.68;;;;;;;;;;5053742;28;20017;-89
2023/10/01 07:01:42;;;;;;;11.95;5.07;;;;;;;;;;5090005;28;20032;-90
2023/10/01 07:04:08;;;;;;;19.55;4.95;;;;;;;;;;5058499;28;20093;-89
2023/10/01 07:06:36;;;;;;;13.00;5.20;;;;;;;;;;5060438;28;20024;-90
2023/10/01 07:09:02;;;;;;;18.13;5.68;;;;;;;;;;5057112;28;20051;-89
2023/10/01 07:11:28;;;;;;;19.33;5.68;;;;;;;;;;5054295;28;20036;-90
2023/10/01 07:13:55;;;;;;;12.20;4.95;;;;;;;;;;5053471;28;20048;-89
2023/10/01 07:16:35;;;;;;;14.30;5.63;;;;;;;;;;5061705;28;20448;-90
2023/10/01 07:19:02;;;;;;;15.23;5.93;;;;;;;;;;5058203;28;20031;-90
2023/10/01 07:21:34;;;;;;;12.95;5.72;;;;;;;;;;5055493;28;20111;-90
2023/10/01 07:24:01;;;;;;;17.63;5.85;;;;;;;;;;5074451;28;20045;-90
2023/10/01 07:26:28;;;;;;;16.20;6.07;;;;;;;;;;5053128;28;20029;-89
2023/10/01 07:28:55;;;;;;;14.57;5.38;;;;;;;;;;5062176;28;20650;-90
2023/10/01 07:31:22;;;;;;;17.73;5.78;;;;;;;;;;5055469;28;20078;-89
2023/10/01 07:33:48;;;;;;;12.00;5.68;;;;;;;;;;5056432;28;20024;-90
2023/10/01 07:36:17;;;;;;;15.95;5.60;;;;;;;;;;5051087;28;20016;-89
2023/10/01 07:38:52;;;;;;;16.33;6.00;;;;;;;;;;5055797;28;20420;-89
2023/10/01 07:41:22;;;;;;;15.45;5.45;;;;;;;;;;5055266;28;20052;-87
2023/10/01 07:43:49;;;;;;;21.88;6.50;;;;;;;;;;5080312;28;20380;-88
2023/10/01 07:46:14;;;;;;;16.50;6.15;;;;;;;;;;5050434;28;20486;-88
2023/10/01 07:48:46;;;;;;;16.33;5.70;;;;;;;;;;5055550;28;20020;-88
2023/10/01 07:51:23;;;;;;;15.73;5.97;;;;;;;;;;5066542;28;20110;-88
2023/10/01 07:53:56;;;;;;;16.40;5.93;;;;;;;;;;5049647;28;20071;-88
2023/10/01 07:56:22;;;;;;;17.95;5.93;;;;;;;;;;5054515;28;20051;-88
2023/10/01 07:58:49;;;;;;;14.00;4.68;;;;;;;;;;5041717;28;20020;-88
2023/10/01 08:03:58;;;;;;;14.32;5.60;;;;;;;;;;5073891;28;20494;-87
2023/10/01 08:06:32;;;;;;;17.98;6.10;;;;;;;;;;5054758;28;20021;-88
2023/10/01 08:09:05;;;;;;;18.83;5.80;;;;;;;;;;5054797;28;20020;-88
2023/10/01 08:14:16;;;;;;;15.73;5.45;;;;;;;;;;5073177;28;20048;-88
2023/10/01 08:16:57;;;;;;;19.88;6.18;;;;;;;;;;5053038;28;20052;-88
2023/10/01 08:19:41;;;;;;;19.97;6.17;;;;;;;;;;5054650;28;20074;-88
2023/10/01 08:22:13;;;;;;;16.38;5.25;;;;;;;;;;5056850;28;20116;-88
2023/10/01 08:24:38;;;;;;;25.58;6.35;;;;;;;;;;5056396;28;20021;-88
2023/10/01 08:27:12;;;;;;;19.42;5.82;;;;;;;;;;5056886;28;20111;-88
2023/10/01 08:32:38;;;;;;;22.17;5.85;;;;;;;;;;5028809;28;20071;-88
2023/10/01 08:35:07;;;;;;;17.63;5.57;;;;;;;;;;5054793;28;20467;-88
2023/10/01 08:37:37;;;;;;;19.42;6.15;;;;;;;;;;5055514;28;20024;-88
2023/10/01 08:40:13;;;;;;;19.33;6.68;;;;;;;;;;5054632;28;20153;-87
2023/10/01 08:42:43;;;;;;;19.98;5.53;;;;;;;;;;5055036;28;20079;-88
2023/10/01 08:45:11;;;;;;;17.77;5.55;;;;;;;;;;5055083;28;20149;-88
2023/10/01 08:47:37;;;;;;;12.93;5.18;;;;;;;;;;5055452;28;20036;-88
2023/10/01 08:52:55;;;;;;;14.68;5.28;;;;;;;;;;5060021;28;20036;-88
2023/10/01 08:55:25;;;;;;;18.13;5.72;;;;;;;;;;5054765;28;20021;-87
2023/10/01 08:58:13;;;;;;;16.17;5.90;;;;;;;;;;5057655;28;20035;-88
2023/10/01 09:00:48;;;;;;;18.40;5.45;;;;;;;;;;5058594;28;20120;-87
2023/10/01 09:03:26;;;;;;;20.92;6.30;;;;;;;;;;5077113;28;20028;-88
2023/10/01 09:06:01;;;;;;;23.23;6.10;;;;;;;;;;5058856;28;20109;-87
2023/10/01 09:08:31;;;;;;;16.42;5.85;;;;;;;;;;5059190;28;20043;-88
2023/10/01 09:10:56;;;;;;;15.45;5.50;;;;;;;;;;5058363;28;20036;-88
2023/10/01 09:13:22;;;;;;;23.45;5.97;;;;;;;;;;5053227;28;20167;-88
2023/10/01 09:15:55;;;;;;;18.65;5.40;;;;;;;;;;5049638;28;20483;-88
2023/10/01 09:18:22;;;;;;;18.67;5.68;;;;;;;;;;5058757;28;20012;-88
2023/10/01 09:21:06;;;;;;;23.75;6.40;;;;;;;;;;5058868;28;20017;-87
2023/10/01 09:23:56;;;;;;;15.85;5.90;;;;;;;;;;5058438;28;20035;-87
2023/10/01 09:26:40;;;;;;;17.85;6.38;;;;;;;;;;5079377;28;20028;-88
2023/10/01 09:29:21;;;;;;;16.75;5.65;;;;;;;;;;5048492;28;20038;-88
2023/10/01 09:31:59;;;;;;;15.00;4.72;;;;;;;;;;5060911;28;20121;-88
2023/10/01 09:34:34;;;;;;;22.20;5.78;;;;;;;;;;5060416;28;20451;-88
2023/10/01 09:37:04;;;;;;;17.23;4.68;;;;;;;;;;5057568;28;20041;-88
2023/10/01 09:39:41;;;;;;;16.27;5.45;;;;;;;;;;5059257;28;20372;-88
2023/10/01 09:42:22;;;;;;;16.33;5.20;;;;;;;;;;5056485;28;20074;-88
2023/10/01 09:44:49;;;;;;;20.33;5.30;;;;;;;;;;5067632;28;20375;-88
2023/10/01 09:47:14;;;;;;;16.95;5.43;;;;;;;;;;5058649;28;20066;-88
2023/10/01 09:49:41;;;;;;;15.07;5.25;;;;;;;;;;5059236;28;20021;-88
2023/10/01 09:52:08;;;;;;;16.63;5.55;;;;;;;;;;5058848;28;20082;-88
2023/10/01 09:54:41;;;;;;;13.38;4.50;;;;;;;;;;5058448;28;20025;-88
2023/10/01 09:57:08;;;;;;;17.45;5.63;;;;;;;;;;5058714;28;20024;-87
2023/10/01 09:59:39;;;;;;;22.63;5.18;;;;;;;;;;5058486;28;20043;-88
2023/10/01 10:02:04;;;;;;;14.70;5.17;;;;;;;;;;5057917;28;20059;-88
2023/10/01 10:04:34;;;;;;;15.18;5.05;;;;;;;;;;5058300;28;20012;-88
2023/10/01 10:07:01;;;;;;;11.90;4.30;;;;;;;;;;5074214;28;20032;-88
2023/10/01 10:09:27;;;;;;;13.35;4.78;;;;;;;;;;5056638;28;20027;-88
2023/10/01 10:11:53;;;;;;;16.20;5.43;;;;;;;;;;5054076;28;20037;-88
2023/10/01 10:14:27;;;;;;;19.25;5.15;;;;;;;;;;5050100;28;20630;-88
2023/10/01 10:16:58;;;;;;;13.43;5.00;;;;;;;;;;5075751;28;20012;-88
2023/10/01 10:19:24;;;;;;;22.13;6.43;;;;;;;;;;5091646;28;20021;-88
2023/10/01 10:22:05;;;;;;;14.60;4.53;;;;;;;;;;5052031;28;20253;-88
2023/10/01 10:24:30;;;;;;;15.73;4.95;;;;;;;;;;5092476;28;20025;-88
2023/10/01 10:27:19;;;;;;;15.15;5.30;;;;;;;;;;5091714;28;20365;-88
2023/10/01 10:29:57;;;;;;;15.10;4.88;;;;;;;;;;5021667;28;20094;-88
2023/10/01 10:32:24;;;;;;;16.88;4.80;;;;;;;;;;5056859;28;20021;-88
2023/10/01 10:35:14;;;;;;;14.50;4.65;;;;;;;;;;5088373;28;20029;-88
2023/10/01 10:37:44;;;;;;;14.77;4.40;;;;;;;;;;5047078;28;20506;-88
2023/10/01 10:42:57;;;;;;;16.55;4.40;;;;;;;;;;5065144;28;20025;-88
2023/10/01 10:45:23;;;;;;;14.15;4.22;;;;;;;;;;5093270;28;20024;-88
2023/10/01 10:48:03;;;;;;;13.13;5.32;;;;;;;;;;5058317;28;20034;-89
2023/10/01 10:50:48;;;;;;;17.58;4.93;;;;;;;;;;5058149;28;20432;-88
2023/10/01 10:53:20;;;;;;;15.63;4.70;;;;;;;;;;5058788;28;20032;-89
2023/10/01 10:56:05;;;;;;;19.40;4.50;;;;;;;;;;5091532;28;20400;-88
2023/10/01 10:59:01;;;;;;;14.38;4.75;;;;;;;;;;5065653;28;20024;-88
2023/10/01 11:01:44;;;;;;;16.95;5.22;;;;;;;;;;5047986;28;20021;-87
2023/10/01 11:04:11;;;;;;;13.20;4.53;;;;;;;;;;5057124;28;20016;-88
2023/10/01 11:06:40;;;;;;;15.10;4.95;;;;;;;;;;5057540;28;20028;-87
2023/10/01 11:09:26;;;;;;;16.48;4.85;;;;;;;;;;5057343;28;20024;-88
2023/10/01 11:12:19;;;;;;;11.23;3.83;;;;;;;;;;5043807;28;20056;-88
2023/10/01 11:14:53;;;;;;;16.67;5.10;;;;;;;;;;5056754;28;20031;-88
2023/10/01 11:17:22;;;;;;;16.67;4.80;;;;;;;;;;5056610;28;20017;-88
2023/10/01 11:19:49;;;;;;;16.90;4.90;;;;;;;;;;5056825;28;20426;-88
2023/10/01 11:22:15;;;;;;;13.02;4.93;;;;;;;;;;5056636;28;20055;-88
2023/10/01 11:24:41;;;;;;;18.08;5.32;;;;;;;;;;5056843;28;20107;-87
2023/10/01 11:27:20;;;;;;;14.88;5.07;;;;;;;;;;5056654;28;20495;-89
2023/10/01 11:29:58;;;;;;;14.98;4.53;;;;;;;;;;5090244;28;20099;-88
2023/10/01 11:32:58;;;;;;;15.40;4.63;;;;;;;;;;5069150;28;20384;-88
2023/10/01 11:35:31;;;;;;;15.52;4.80;;;;;;;;;;5087870;28;20021;-88
2023/10/01 11:37:57;;;;;;;16.65;4.85;;;;;;;;;;5056720;28;20052;-88
2023/10/01 11:41:06;;;;;;;15.88;4.75;;;;;;;;;;5090483;28;20025;-88
2023/10/01 11:43:23;;;;;;;14.48;5.13;;;;;;;;;;5077517;28;20036;-88
2023/10/01 11:45:48;;;;;;;12.27;4.78;;;;;;;;;;5056546;28;20032;-89
2023/10/01 11:48:23;;;;;;;23.05;5.40;;;;;;;;;;5056333;28;20080;-88
2023/10/01 11:50:52;;;;;;;15.60;5.55;;;;;;;;;;5059248;28;20524;-88
2023/10/01 11:53:28;;;;;;;18.40;5.38;;;;;;;;;;5061609;28;20166;-88
2023/10/01 11:56:01;;;;;;;12.73;4.13;;;;;;;;;;5058176;28;20005;-88
2023/10/01 11:58:27;;;;;;;17.63;5.00;;;;;;;;;;5077102;28;20012;-89
2023/10/01 12:00:52;;;;;;;19.60;4.82;;;;;;;;;;5058230;28;20013;-89
2023/10/01 12:03:18;;;;;;;13.13;4.63;;;;;;;;;;5057294;28;20032;-88
2023/10/01 12:05:46;;;;;;;17.58;4.72;;;;;;;;;;5057536;28;20078;-88
2023/10/01 12:08:18;;;;;;;17.20;5.32;;;;;;;;;;5074531;28;20008;-88
2023/10/01 12:10:51;;;;;;;19.05;5.45;;;;;;;;;;5055940;28;20054;-87
2023/10/01 12:13:16;;;;;;;17.58;4.63;;;;;;;;;;5055611;28;20060;-89
2023/10/01 12:15:51;;;;;;;15.95;5.20;;;;;;;;;;5056270;28;20032;-89
2023/10/01 12:18:19;;;;;;;15.50;5.28;;;;;;;;;;5055608;28;20023;-89
2023/10/01 12:20:47;;;;;;;15.40;4.95;;;;;;;;;;5055802;28;20023;-88
2023/10/01 12:23:19;;;;;;;17.67;5.80;;;;;;;;;;5056026;28;20024;-89
2023/10/01 12:25:52;;;;;;;17.48;5.90;;;;;;;;;;5055951;28;20114;-88
2023/10/01 12:28:18;;;;;;;19.52;6.07;;;;;;;;;;5055057;28;20024;-89
2023/10/01 12:31:02;;;;;;;18.65;5.43;;;;;;;;;;5055417;28;20028;-89
2023/10/01 12:33:40;;;;;;;16.10;5.53;;;;;;;;;;5054825;28;20032;-88
2023/10/01 12:44:34;;;;;;;17.90;5.80;;;;;;;;;;5060826;28;20031;-88
2023/10/01 12:47:09;;;;;;;13.13;5.07;;;;;;;;;;5055556;28;20063;-88
2023/10/01 12:49:38;;;;;;;16.10;5.40;;;;;;;;;;5054990;28;20028;-89
2023/10/01 12:52:05;;;;;;;18.45;5.03;;;;;;;;;;5055182;28;20376;-89
2023/10/01 12:54:36;;;;;;;13.90;5.05;;;;;;;;;;5055452;28;20376;-89
2023/10/01 12:57:18;;;;;;;19.88;6.32;;;;;;;;;;5058128;28;20495;-88
2023/10/01 12:59:49;;;;;;;18.52;5.65;;;;;;;;;;5055044;28;20021;-89
2023/10/01 13:05:16;;;;;;;17.42;5.90;;;;;;;;;;5075105;28;20074;-89
2023/10/01 13:07:42;;;;;;;19.00;5.28;;;;;;;;;;5075039;28;20036;-89
2023/10/01 13:10:08;;;;;;;18.45;6.03;;;;;;;;;;5090435;28;20415;-89
2023/10/01 13:12:53;;;;;;;17.55;5.50;;;;;;;;;;5062597;28;20021;-88
2023/10/01 13:15:29;;;;;;;14.60;4.85;;;;;;;;;;5043341;28;20013;-88
2023/10/01 13:18:00;;;;;;;12.57;4.18;;;;;;;;;;5057963;28;20020;-89
2023/10/01 13:20:27;;;;;;;16.42;5.10;;;;;;;;;;5043595;28;20020;-89
2023/10/01 13:22:53;;;;;;;15.75;4.88;;;;;;;;;;5055859;28;20111;-89
2023/10/01 13:25:20;;;;;;;14.02;4.88;;;;;;;;;;5055081;28;20125;-88
2023/10/01 13:27:46;;;;;;;14.88;4.95;;;;;;;;;;5055993;28;20114;-88
2023/10/01 13:30:18;;;;;;;12.30;4.25;;;;;;;;;;5040750;28;20052;-88
2023/10/01 13:33:10;;;;;;;12.18;4.20;;;;;;;;;;5055033;28;20028;-88
2023/10/01 13:35:50;;;;;;;16.65;5.45;;;;;;;;;;5072851;28;20500;-88
2023/10/01 13:38:26;;;;;;;17.40;5.40;;;;;;;;;;5054122;28;20424;-88
2023/10/01 14:11:02;;;;;;;16.55;4.63;;;;;;;;;;5071438;28;20126;-88
2023/10/01 14:13:35;;;;;;;15.32;4.63;;;;;;;;;;5055523;28;20017;-87
2023/10/01 14:16:17;;;;;;;16.88;5.32;;;;;;;;;;5050785;28;20096;-88
2023/10/01 14:18:53;;;;;;;15.57;4.97;;;;;;;;;;5044342;28;20051;-88
2023/10/01 14:21:28;;;;;;;15.50;5.00;;;;;;;;;;5058192;28;20029;-88
2023/10/01 14:23:57;;;;;;;21.45;5.05;;;;;;;;;;5046246;28;20349;-88
2023/10/01 14:26:46;;;;;;;13.13;4.78;;;;;;;;;;5060648;28;20420;-89
2023/10/01 14:29:11;;;;;;;17.25;4.63;;;;;;;;;;5047767;28;20032;-88
2023/10/01 14:31:49;;;;;;;15.57;4.85;;;;;;;;;;5058271;28;20480;-88
2023/10/01 14:34:17;;;;;;;16.23;5.22;;;;;;;;;;5058422;28;20020;-88
2023/10/01 14:36:42;;;;;;;16.45;5.10;;;;;;;;;;5058494;28;20024;-88
2023/10/01 14:39:09;;;;;;;17.83;5.07;;;;;;;;;;5058434;28;20009;-88
2023/10/01 14:41:38;;;;;;;10.82;4.00;;;;;;;;;;5057646;28;20020;-88
2023/10/01 14:44:05;;;;;;;15.15;4.70;;;;;;;;;;5058605;28;20024;-88
2023/10/01 14:46:30;;;;;;;15.50;4.57;;;;;;;;;;5057847;28;20055;-88
2023/10/01 14:49:04;;;;;;;14.82;5.15;;;;;;;;;;5057525;28;20012;-88
2023/10/01 14:51:31;;;;;;;13.52;4.18;;;;;;;;;;5058075;28;20087;-88
2023/10/01 14:53:57;;;;;;;18.30;4.90;;;;;;;;;;5056651;28;20341;-88
2023/10/01 14:56:22;;;;;;;13.27;4.95;;;;;;;;;;5052883;28;20024;-88
2023/10/01 14:58:51;;;;;;;16.98;4.38;;;;;;;;;;5057827;28;20020;-88
2023/10/01 15:01:17;;;;;;;13.73;4.22;;;;;;;;;;5057812;28;20009;-88
2023/10/01 15:03:42;;;;;;;17.23;5.40;;;;;;;;;;5057317;28;20081;-88
2023/10/01 15:06:08;;;;;;;14.88;4.95;;;;;;;;;;5057220;28;20024;-88
2023/10/01 15:08:37;;;;;;;16.17;5.63;;;;;;;;;;5057316;28;20020;-88
2023/10/01 15:11:15;;;;;;;18.15;4.95;;;;;;;;;;5057045;28;20036;-88
2023/10/01 15:13:44;;;;;;;11.80;4.60;;;;;;;;;;5056286;28;20035;-88
2023/10/01 15:16:12;;;;;;;18.15;4.97;;;;;;;;;;5055028;28;20392;-89
2023/10/01 15:18:40;;;;;;;18.80;5.40;;;;;;;;;;5074285;28;20363;-88
2023/10/01 15:21:30;;;;;;;14.43;4.72;;;;;;;;;;5056801;28;20021;-88
2023/10/01 15:23:59;;;;;;;16.90;5.45;;;;;;;;;;5061103;28;20506;-88
2023/10/01 15:26:25;;;;;;;16.30;5.55;;;;;;;;;;5052642;28;20086;-88
2023/10/01 15:28:51;;;;;;;13.90;4.72;;;;;;;;;;5042973;28;20020;-88
2023/10/01 15:31:20;;;;;;;10.75;4.38;;;;;;;;;;5056732;28;20027;-88
2023/10/01 15:34:00;;;;;;;17.30;5.45;;;;;;;;;;5090316;28;20063;-88
2023/10/01 15:36:43;;;;;;;19.02;5.45;;;;;;;;;;5090641;28;20025;-88
2023/10/01 15:39:54;;;;;;;14.95;5.60;;;;;;;;;;5081115;28;20368;-88
2023/10/01 15:44:43;;;;;;;19.30;5.25;;;;;;;;;;5077397;28;20341;-88
2023/10/01 15:47:34;;;;;;;19.80;6.10;;;;;;;;;;5058048;28;20021;-87
2023/10/01 15:50:07;;;;;;;14.18;5.00;;;;;;;;;;5058050;28;20092;-88
2023/10/01 15:52:37;;;;;;;16.90;5.20;;;;;;;;;;5058402;28;20117;-88
2023/10/01 15:55:06;;;;;;;19.42;5.63;;;;;;;;;;5091214;28;20020;-88
2023/10/01 15:57:34;;;;;;;16.45;5.55;;;;;;;;;;5056732;28;20084;-88
2023/10/01 16:00:00;;;;;;;20.33;6.30;;;;;;;;;;5056169;28;20473;-88
2023/10/01 16:02:33;;;;;;;16.23;5.60;;;;;;;;;;5056547;28;20020;-87
2023/10/01 16:05:05;;;;;;;17.35;5.90;;;;;;;;;;5056336;28;20074;-88